Matamoras, Pennsylvania
Current Conditions -  °F | °C
As of 11:53 AM on Thursday 23 Oct 2014 (Local Time) from KFWN Reporting Station
Light Rain Light Rain  
Wind Chill: 54°   Ceiling: 3600
Heat Index: 54°   Visibility: 10mi
Dew Point: 46°   Wind: 10mph
Humidity: 75%   Direction: 360°N
Pressure: 29.76"   Gusts: NA
Location:  41.37°N, 74.7°W
Report Text: KFWN 231553Z AUTO 36009KT 10SM -RA OVC036 12/08 A2976 RMK AO2 RAE14B42 SLP076 P0000 T01220078
Loading
Personal Weather Stations






























Interactive Weather Map
Tropical Storm Tracking
New forecast layout! Learn more

10-Day Weather Forecast

Advertisements
Track Severe Weather on mobile